Terminal Aerodrome Forecast
Issued by NWS Tulsa, OK

Home | Current Version | Previous Version | Text Only | Print | Product List | Glossary On
Versions: 1 2 3 4 5 6 7 8 9 10 11 12 13 14 15
000
FTUS44 KTSA 200539
TAFFSM
TAF
KFSM 200539Z 2006/2106 08007KT P6SM BKN040
      TEMPO 2012/2016 3SM TSRA BR BKN020CB
     FM201600 12006KT P6SM OVC035
      TEMPO 2016/2020 5SM -RA BR OVC020
     FM202000 15006KT P6SM OVC035 PROB30 2020/2101 5SM -RA BR
     FM210300 VRB03KT P6SM BKN100=

USA.gov is the U.S. government's official web portal to all federal, state and local government web resources and services.